createdAt,value
2022-08-03T00:02:19.676Z,2.70
2022-08-03T00:04:48.188Z,2.70
2022-08-03T00:07:16.941Z,2.90
2022-08-03T00:09:44.808Z,2.70
2022-08-03T00:12:12.673Z,2.80
2022-08-03T00:14:40.387Z,3.00
2022-08-03T00:17:08.713Z,2.70
2022-08-03T00:19:36.405Z,2.50
2022-08-03T00:22:04.166Z,2.80
2022-08-03T00:24:31.948Z,2.20
2022-08-03T00:26:59.719Z,2.90
2022-08-03T00:29:27.691Z,3.00
2022-08-03T00:32:00.318Z,2.50
2022-08-03T00:34:36.204Z,2.40
2022-08-03T00:37:16.692Z,2.40
2022-08-03T00:39:46.244Z,2.40
2022-08-03T00:42:14.504Z,3.00
2022-08-03T00:44:46.034Z,2.10
2022-08-03T00:47:13.773Z,3.20
2022-08-03T00:49:42.609Z,2.60
2022-08-03T00:52:11.683Z,2.20
2022-08-03T00:54:40.087Z,2.70
2022-08-03T00:57:08.465Z,2.60
2022-08-03T00:59:38.207Z,2.90
2022-08-03T01:02:06.504Z,2.70
2022-08-03T01:04:34.212Z,2.30
2022-08-03T01:07:46.658Z,2.20
2022-08-03T01:10:54.497Z,2.30
2022-08-03T01:14:01.433Z,2.90
2022-08-03T01:17:02.028Z,2.60
2022-08-03T01:20:05.077Z,2.40
2022-08-03T01:23:31.357Z,2.60
2022-08-03T01:26:25.056Z,2.40
2022-08-03T01:29:18.847Z,2.70
2022-08-03T01:32:59.744Z,2.30
2022-08-03T01:35:03.685Z,2.70
2022-08-03T01:37:48.119Z,2.20
2022-08-03T01:40:19.551Z,2.80
2022-08-03T01:42:50.612Z,3.10
2022-08-03T01:47:49.974Z,2.00
2022-08-03T01:50:24.117Z,2.80
2022-08-03T01:52:54.480Z,2.20
2022-08-03T01:55:24.389Z,3.10
2022-08-03T01:58:06.126Z,2.00
2022-08-03T02:00:39.776Z,2.00
2022-08-03T02:03:09.676Z,2.10
2022-08-03T02:05:40.102Z,2.50
2022-08-03T02:08:13.762Z,2.10
2022-08-03T02:10:43.512Z,2.00
2022-08-03T02:13:12.643Z,2.20
2022-08-03T02:15:42.982Z,2.40
2022-08-03T02:18:13.341Z,2.20
2022-08-03T02:20:44.498Z,2.20
2022-08-03T02:23:14.838Z,2.00
2022-08-03T02:25:49.761Z,2.40
2022-08-03T02:28:20.986Z,2.00
2022-08-03T02:33:31.704Z,2.00
2022-08-03T02:36:02.084Z,2.40
2022-08-03T02:38:34.870Z,2.70
2022-08-03T02:41:10.549Z,1.80
2022-08-03T02:44:06.271Z,2.10
2022-08-03T02:46:34.188Z,2.30
2022-08-03T02:49:41.127Z,2.40
2022-08-03T02:51:54.372Z,2.30
2022-08-03T02:54:25.226Z,2.20
2022-08-03T02:56:56.787Z,2.20
2022-08-03T02:59:26.360Z,2.30
2022-08-03T03:01:55.638Z,1.70
2022-08-03T03:04:25.690Z,1.70
2022-08-03T03:07:01.679Z,2.00
2022-08-03T03:09:41.567Z,2.30
2022-08-03T03:12:14.083Z,1.60
2022-08-03T03:14:42.358Z,2.20
2022-08-03T03:17:12.327Z,2.00
2022-08-03T03:19:41.518Z,2.40
2022-08-03T03:22:10.574Z,2.30
2022-08-03T03:24:41.573Z,1.90
2022-08-03T03:27:09.793Z,1.90
2022-08-03T03:29:39.405Z,2.20
2022-08-03T03:32:09.134Z,2.10
2022-08-03T03:34:41.059Z,2.10
2022-08-03T03:37:12.183Z,1.70
2022-08-03T03:39:40.049Z,1.90
2022-08-03T03:42:07.893Z,2.10
2022-08-03T03:44:35.790Z,3.00
2022-08-03T03:47:04.184Z,1.80
2022-08-03T03:49:32.613Z,2.40
2022-08-03T03:52:00.409Z,2.00
2022-08-03T03:54:44.023Z,1.70
2022-08-03T03:57:13.655Z,1.70
2022-08-03T03:59:42.858Z,2.00
2022-08-03T04:02:12.376Z,2.20
2022-08-03T04:04:59.027Z,2.50
2022-08-03T04:07:46.346Z,1.90
2022-08-03T04:10:38.693Z,2.10
2022-08-03T04:13:13.546Z,1.80
2022-08-03T04:15:42.258Z,2.00
2022-08-03T04:18:15.578Z,1.90
2022-08-03T04:20:48.805Z,2.10
2022-08-03T04:23:24.569Z,2.00
2022-08-03T04:25:56.261Z,2.40
2022-08-03T04:28:30.793Z,2.70
2022-08-03T04:31:01.597Z,1.60
2022-08-03T04:33:33.502Z,2.10
2022-08-03T04:36:08.062Z,2.40
2022-08-03T04:38:58.042Z,2.00
2022-08-03T04:41:27.761Z,2.00
2022-08-03T04:44:00.268Z,2.20
2022-08-03T04:46:39.213Z,1.80
2022-08-03T04:49:10.433Z,1.60
2022-08-03T04:51:40.558Z,1.70
2022-08-03T04:54:13.309Z,1.80
2022-08-03T04:56:41.957Z,2.30
2022-08-03T04:59:10.753Z,1.80
2022-08-03T05:01:41.520Z,1.40
2022-08-03T05:04:09.810Z,1.80
2022-08-03T05:06:41.408Z,1.80
2022-08-03T05:09:16.202Z,1.80
2022-08-03T05:12:05.563Z,2.00
2022-08-03T05:14:34.736Z,1.80
2022-08-03T05:17:02.558Z,1.90
2022-08-03T05:19:30.589Z,1.40
2022-08-03T05:21:59.575Z,1.40
2022-08-03T05:24:27.422Z,1.50
2022-08-03T05:26:55.126Z,1.80
2022-08-03T05:29:22.943Z,1.40
2022-08-03T05:31:50.665Z,1.80
2022-08-03T05:34:18.349Z,1.50
2022-08-03T05:36:46.074Z,1.80
2022-08-03T05:39:13.863Z,1.90
2022-08-03T05:41:41.719Z,1.50
2022-08-03T05:44:09.454Z,1.60
2022-08-03T05:46:37.193Z,1.40
2022-08-03T05:49:05.080Z,1.60
2022-08-03T05:51:32.871Z,1.80
2022-08-03T05:54:00.631Z,1.40
2022-08-03T05:56:28.611Z,1.20
2022-08-03T05:58:56.376Z,1.50
2022-08-03T06:01:24.492Z,1.70
2022-08-03T06:03:52.812Z,1.20
2022-08-03T06:06:20.621Z,1.20
2022-08-03T06:08:48.899Z,1.40
2022-08-03T06:11:16.852Z,1.20
2022-08-03T06:13:44.864Z,1.40
2022-08-03T06:16:12.689Z,1.30
2022-08-03T06:18:40.525Z,1.20
2022-08-03T06:21:14.694Z,1.40
2022-08-03T06:23:54.306Z,1.60
2022-08-03T06:26:27.917Z,1.40
2022-08-03T06:28:56.190Z,1.10
2022-08-03T06:31:32.809Z,1.30
2022-08-03T06:34:33.305Z,1.20
2022-08-03T06:36:58.593Z,1.20
2022-08-03T06:39:29.498Z,1.20
2022-08-03T06:41:57.956Z,1.40
2022-08-03T06:44:26.149Z,1.50
2022-08-03T06:46:53.976Z,1.00
2022-08-03T06:49:21.974Z,1.10
2022-08-03T06:52:06.263Z,1.00
2022-08-03T06:54:35.765Z,1.40
2022-08-03T06:57:04.238Z,1.00
2022-08-03T07:00:06.135Z,1.00
2022-08-03T07:02:20.396Z,1.10
2022-08-03T07:04:49.141Z,0.90
2022-08-03T07:07:17.780Z,1.00
2022-08-03T07:09:55.670Z,1.10
2022-08-03T07:12:30.287Z,1.00
2022-08-03T07:15:01.757Z,1.20
2022-08-03T07:17:32.657Z,1.10
2022-08-03T07:20:03.619Z,1.10
2022-08-03T07:22:31.460Z,1.00
2022-08-03T07:24:59.576Z,1.10
2022-08-03T07:27:28.550Z,1.20
2022-08-03T07:29:58.488Z,1.00
2022-08-03T07:32:27.022Z,0.70
2022-08-03T07:34:58.470Z,0.90
2022-08-03T07:37:29.942Z,0.60
2022-08-03T07:39:58.455Z,0.70
2022-08-03T07:42:28.195Z,0.90
2022-08-03T07:44:57.225Z,0.70
2022-08-03T07:47:35.416Z,1.40
2022-08-03T07:50:06.511Z,0.80
2022-08-03T07:52:48.620Z,0.90
2022-08-03T07:55:22.347Z,0.90
2022-08-03T07:58:05.214Z,0.80
2022-08-03T08:00:33.944Z,0.90
2022-08-03T08:03:02.478Z,0.80
2022-08-03T08:05:30.846Z,0.70
2022-08-03T08:07:58.659Z,0.80
2022-08-03T08:10:26.522Z,0.80
2022-08-03T08:12:55.548Z,0.80
2022-08-03T08:15:23.993Z,0.80
2022-08-03T08:17:55.978Z,0.90
2022-08-03T08:20:35.015Z,0.80
2022-08-03T08:23:34.512Z,0.90
2022-08-03T08:25:56.674Z,1.00
2022-08-03T08:28:30.215Z,0.90
2022-08-03T08:31:00.222Z,0.70
2022-08-03T08:33:42.249Z,0.80
2022-08-03T08:36:15.983Z,0.90
2022-08-03T08:38:45.142Z,0.70
2022-08-03T08:41:15.010Z,0.80
2022-08-03T08:43:43.709Z,0.70
2022-08-03T08:46:23.474Z,0.50
2022-08-03T08:48:54.579Z,0.80
2022-08-03T08:51:50.461Z,0.80
2022-08-03T08:54:22.563Z,0.60
2022-08-03T08:56:52.636Z,1.00
2022-08-03T08:59:21.922Z,0.70
2022-08-03T09:01:49.721Z,0.60
2022-08-03T09:04:18.035Z,0.60
2022-08-03T09:06:58.853Z,0.50
2022-08-03T09:10:11.949Z,0.60
2022-08-03T09:12:41.195Z,0.40
2022-08-03T09:15:33.195Z,0.40
2022-08-03T09:18:04.174Z,0.40
2022-08-03T09:20:34.983Z,0.50
2022-08-03T09:23:26.319Z,0.50
2022-08-03T09:26:00.088Z,0.50
2022-08-03T09:29:00.594Z,0.50
2022-08-03T09:31:37.289Z,0.50
2022-08-03T09:34:14.539Z,0.60
2022-08-03T09:36:50.151Z,0.50
2022-08-03T09:39:40.433Z,0.50
2022-08-03T09:42:18.667Z,0.60
2022-08-03T09:44:52.397Z,0.70
2022-08-03T09:47:37.557Z,0.60
2022-08-03T09:50:12.959Z,0.70
2022-08-03T09:52:49.737Z,0.80
2022-08-03T09:56:32.916Z,0.60
2022-08-03T09:58:11.304Z,0.80
2022-08-03T10:00:55.922Z,0.80
2022-08-03T10:03:26.989Z,0.70
2022-08-03T10:05:59.766Z,0.70
2022-08-03T10:08:28.014Z,0.70
2022-08-03T10:10:57.883Z,0.80
2022-08-03T10:13:25.714Z,0.80
2022-08-03T10:16:24.146Z,0.80
2022-08-03T10:18:41.201Z,0.70
2022-08-03T10:21:16.569Z,0.70
2022-08-03T10:23:44.689Z,0.80
2022-08-03T10:26:19.014Z,0.90
2022-08-03T10:28:50.547Z,0.90
2022-08-03T10:31:22.256Z,0.90
2022-08-03T10:33:55.452Z,0.80
2022-08-03T10:36:27.354Z,1.00
2022-08-03T10:38:57.248Z,0.80
2022-08-03T10:41:32.418Z,1.00
2022-08-03T10:44:13.298Z,1.00
2022-08-03T10:46:45.206Z,0.80
2022-08-03T10:49:25.473Z,1.20
2022-08-03T10:52:13.441Z,1.10
2022-08-03T10:55:11.855Z,0.90
2022-08-03T10:57:58.506Z,1.00
2022-08-03T11:00:30.289Z,1.20
2022-08-03T11:03:14.021Z,1.60
2022-08-03T11:05:43.764Z,1.20
2022-08-03T11:08:30.987Z,1.20
2022-08-03T11:11:03.538Z,1.60
2022-08-03T11:13:33.695Z,1.40
2022-08-03T11:16:21.855Z,2.00
2022-08-03T11:19:01.699Z,1.50
2022-08-03T11:21:51.657Z,1.50
2022-08-03T11:24:37.593Z,1.70
2022-08-03T11:27:14.324Z,1.70
2022-08-03T11:30:06.710Z,1.70
2022-08-03T11:32:37.388Z,1.80
2022-08-03T11:35:16.741Z,1.80
2022-08-03T11:38:05.995Z,1.70
2022-08-03T11:40:39.869Z,1.80
2022-08-03T11:43:21.949Z,1.80
2022-08-03T11:46:02.416Z,1.90
2022-08-03T11:48:43.837Z,1.70
2022-08-03T11:51:22.858Z,1.70
2022-08-03T11:54:06.142Z,1.80
2022-08-03T11:56:49.632Z,1.90
2022-08-03T11:59:21.806Z,1.70
2022-08-03T12:01:50.907Z,1.60
2022-08-03T12:04:18.717Z,1.40
2022-08-03T12:07:01.940Z,1.50
2022-08-03T12:09:29.660Z,1.50
2022-08-03T12:12:00.493Z,1.90
2022-08-03T12:14:48.577Z,1.50
2022-08-03T12:17:18.695Z,1.50
2022-08-03T12:19:47.088Z,1.30
2022-08-03T12:22:16.778Z,1.30
2022-08-03T12:24:47.160Z,1.50
2022-08-03T12:27:27.748Z,1.20
2022-08-03T12:29:59.269Z,1.30
2022-08-03T12:32:29.767Z,1.30
2022-08-03T12:35:01.278Z,1.40
2022-08-03T12:37:30.571Z,1.30
2022-08-03T12:40:07.756Z,1.20
2022-08-03T12:42:40.180Z,1.20
2022-08-03T12:45:26.284Z,1.30
2022-08-03T12:47:59.907Z,1.40
2022-08-03T12:50:34.887Z,1.10
2022-08-03T12:53:08.009Z,1.20
2022-08-03T12:55:56.494Z,1.20
2022-08-03T12:58:34.119Z,1.20
2022-08-03T13:01:09.677Z,1.50
2022-08-03T13:03:50.281Z,1.50
2022-08-03T13:06:25.725Z,1.30
2022-08-03T13:09:07.862Z,1.50
2022-08-03T13:11:58.079Z,1.20
2022-08-03T13:14:23.914Z,1.60
2022-08-03T13:16:51.881Z,1.30
2022-08-03T13:19:19.723Z,1.30
2022-08-03T13:21:53.783Z,1.20
2022-08-03T13:24:33.798Z,1.40
2022-08-03T13:27:58.910Z,1.50
2022-08-03T13:29:50.885Z,1.30
2022-08-03T13:32:19.575Z,1.30
2022-08-03T13:34:47.551Z,1.50
2022-08-03T13:37:15.994Z,1.20
2022-08-03T13:39:57.339Z,1.60
2022-08-03T13:42:30.964Z,1.30
2022-08-03T13:45:00.371Z,1.30
2022-08-03T13:47:28.458Z,1.40
2022-08-03T13:50:01.826Z,2.00
2022-08-03T13:52:33.460Z,1.80
2022-08-03T13:58:03.904Z,1.50
2022-08-03T14:00:27.946Z,1.40
2022-08-03T14:03:05.261Z,1.70
2022-08-03T14:05:38.724Z,1.80
2022-08-03T14:08:07.954Z,1.70
2022-08-03T14:10:38.469Z,1.60
2022-08-03T14:13:07.421Z,1.40
2022-08-03T14:15:37.436Z,1.30
2022-08-03T14:18:12.813Z,1.40
2022-08-03T14:20:49.996Z,2.10
2022-08-03T14:23:19.671Z,1.60
2022-08-03T14:25:51.629Z,1.50
2022-08-03T14:28:23.131Z,1.90
2022-08-03T14:30:56.058Z,2.30
2022-08-03T14:33:24.528Z,1.50
2022-08-03T14:35:53.366Z,1.50
2022-08-03T14:38:22.223Z,1.70
2022-08-03T14:40:51.353Z,1.40
2022-08-03T14:43:22.334Z,1.60
2022-08-03T14:45:53.375Z,2.00
2022-08-03T14:50:33.568Z,1.70
2022-08-03T14:51:10.903Z,2.00
2022-08-03T14:53:38.652Z,1.60
2022-08-03T14:56:10.135Z,1.80
2022-08-03T14:58:38.733Z,1.70
2022-08-03T15:02:03.167Z,1.60
2022-08-03T15:03:55.320Z,1.80
2022-08-03T15:06:23.035Z,1.80
2022-08-03T15:09:13.609Z,1.70
2022-08-03T15:11:39.313Z,1.70
2022-08-03T15:14:09.346Z,2.30
2022-08-03T15:16:38.754Z,2.30
2022-08-03T15:20:00.818Z,1.80
2022-08-03T15:21:54.539Z,2.10
2022-08-03T15:24:22.325Z,2.20
2022-08-03T15:26:52.360Z,1.80
2022-08-03T15:30:05.356Z,1.60
2022-08-03T15:32:09.634Z,1.60
2022-08-03T15:34:37.600Z,1.80
2022-08-03T15:37:16.243Z,1.70
2022-08-03T15:39:59.053Z,1.80
2022-08-03T15:42:30.510Z,1.50
2022-08-03T15:44:59.128Z,1.70
2022-08-03T15:47:27.451Z,1.70
2022-08-03T15:49:55.258Z,1.40
2022-08-03T15:52:23.098Z,1.60
2022-08-03T15:54:50.945Z,1.40
2022-08-03T15:57:19.209Z,1.80
2022-08-03T15:59:47.614Z,1.40
2022-08-03T16:02:16.198Z,2.00
2022-08-03T16:04:43.980Z,2.30
2022-08-03T16:07:12.775Z,1.90
2022-08-03T16:09:42.831Z,1.70
2022-08-03T16:12:16.384Z,1.80
2022-08-03T16:14:52.712Z,1.80
2022-08-03T16:17:22.246Z,1.60
2022-08-03T16:19:54.113Z,1.70
2022-08-03T16:22:24.825Z,1.70
2022-08-03T16:24:54.611Z,1.80
2022-08-03T16:27:56.853Z,1.60
2022-08-03T16:30:15.292Z,1.40
2022-08-03T16:32:45.404Z,1.50
2022-08-03T16:35:19.560Z,2.10
2022-08-03T16:37:54.636Z,1.70
2022-08-03T16:40:25.127Z,1.50
2022-08-03T16:42:52.976Z,1.70
2022-08-03T16:45:21.147Z,1.70
2022-08-03T16:47:49.085Z,1.60
2022-08-03T16:50:35.313Z,1.50
2022-08-03T16:53:16.438Z,1.60
2022-08-03T16:55:53.922Z,1.70
2022-08-03T16:58:41.482Z,1.90
2022-08-03T17:01:22.444Z,2.00
2022-08-03T17:04:04.874Z,1.70
2022-08-03T17:06:45.087Z,1.80
2022-08-03T17:09:20.816Z,1.70
2022-08-03T17:11:50.995Z,2.00
2022-08-03T17:14:28.369Z,1.80
2022-08-03T17:17:03.700Z,1.80
2022-08-03T17:19:34.966Z,1.80
2022-08-03T17:22:12.334Z,2.10
2022-08-03T17:25:07.618Z,2.30
2022-08-03T17:28:49.565Z,2.00
2022-08-03T17:30:46.505Z,1.80
2022-08-03T17:33:20.669Z,2.00
2022-08-03T17:35:53.277Z,2.10
2022-08-03T17:38:24.961Z,1.80
2022-08-03T17:41:00.170Z,2.00
2022-08-03T17:44:12.957Z,1.80
2022-08-03T17:46:16.345Z,1.80
2022-08-03T17:48:47.614Z,1.80
2022-08-03T17:51:46.515Z,1.60
2022-08-03T17:54:28.478Z,1.80
2022-08-03T17:57:22.504Z,2.10
2022-08-03T18:00:25.944Z,1.90
2022-08-03T18:03:31.618Z,1.80
2022-08-03T18:06:27.881Z,2.00
2022-08-03T18:09:00.178Z,1.60
2022-08-03T18:11:35.531Z,1.60
2022-08-03T18:14:57.413Z,1.60
2022-08-03T18:17:55.337Z,1.60
2022-08-03T18:20:34.567Z,1.50
2022-08-03T18:23:25.393Z,1.60
2022-08-03T18:26:06.721Z,1.50
2022-08-03T18:28:38.377Z,1.40
2022-08-03T18:31:09.810Z,1.40
2022-08-03T18:34:18.323Z,1.50
2022-08-03T18:36:32.926Z,1.60
2022-08-03T18:39:12.018Z,1.40
2022-08-03T18:41:46.134Z,1.50
2022-08-03T18:44:52.498Z,1.40
2022-08-03T18:47:16.266Z,1.50
2022-08-03T18:50:06.288Z,1.70
2022-08-03T18:52:56.861Z,1.50
2022-08-03T18:55:35.319Z,1.20
2022-08-03T18:58:03.286Z,1.40
2022-08-03T19:00:42.403Z,1.60
2022-08-03T19:03:43.414Z,1.30
2022-08-03T19:06:23.077Z,1.20
2022-08-03T19:09:13.012Z,1.20
2022-08-03T19:12:11.025Z,1.50
2022-08-03T19:14:52.495Z,1.30
2022-08-03T19:17:22.658Z,1.60
2022-08-03T19:19:58.787Z,1.30
2022-08-03T19:22:30.961Z,1.50
2022-08-03T19:25:04.762Z,1.50
2022-08-03T19:27:35.184Z,1.40
2022-08-03T19:30:16.805Z,1.40
2022-08-03T19:32:50.921Z,1.60
2022-08-03T19:35:54.799Z,1.60
2022-08-03T19:38:09.708Z,1.60
2022-08-03T19:40:50.970Z,1.80
2022-08-03T19:43:52.713Z,1.60
2022-08-03T19:46:30.201Z,1.70
2022-08-03T19:49:15.228Z,1.60
2022-08-03T19:52:01.255Z,1.70
2022-08-03T19:57:36.568Z,1.70
2022-08-03T20:00:11.884Z,2.10
2022-08-03T20:02:41.026Z,1.60
2022-08-03T20:05:14.982Z,1.70
2022-08-03T20:07:47.734Z,1.80
2022-08-03T20:10:19.835Z,1.90
2022-08-03T20:12:49.657Z,2.00
2022-08-03T20:15:22.236Z,1.70
2022-08-03T20:17:55.343Z,1.90
2022-08-03T20:20:31.235Z,2.40
2022-08-03T20:23:02.709Z,2.00
2022-08-03T20:25:57.020Z,1.80
2022-08-03T20:28:50.147Z,1.90
2022-08-03T20:31:25.188Z,1.90
2022-08-03T20:34:00.813Z,1.90
2022-08-03T20:36:28.958Z,2.20
2022-08-03T20:38:58.774Z,1.80
2022-08-03T20:41:27.445Z,2.00
2022-08-03T20:43:55.268Z,1.90
2022-08-03T20:46:30.905Z,2.10
2022-08-03T20:49:03.904Z,1.90
2022-08-03T20:51:50.083Z,2.00
2022-08-03T20:54:29.578Z,2.00
2022-08-03T20:57:03.612Z,2.10
2022-08-03T20:59:50.675Z,1.80
2022-08-03T21:02:29.976Z,2.00
2022-08-03T21:05:08.544Z,2.00
2022-08-03T21:10:39.270Z,2.10
2022-08-03T21:13:03.182Z,1.70
2022-08-03T21:13:08.099Z,2.10
2022-08-03T21:13:47.262Z,2.30
2022-08-03T21:16:17.179Z,2.80
2022-08-03T21:18:51.075Z,2.50
2022-08-03T21:21:22.302Z,2.30
2022-08-03T21:23:54.750Z,2.60
2022-08-03T21:26:26.142Z,2.10
2022-08-03T21:28:56.750Z,2.40
2022-08-03T21:31:26.804Z,2.60
2022-08-03T21:34:03.406Z,2.20
2022-08-03T21:36:35.949Z,2.40
2022-08-03T21:39:08.316Z,2.70
2022-08-03T21:41:39.594Z,2.50
2022-08-03T21:46:40.331Z,2.50
2022-08-03T21:49:51.711Z,2.80
2022-08-03T21:52:05.635Z,2.80
2022-08-03T21:54:42.163Z,2.50
2022-08-03T21:57:24.188Z,2.60
2022-08-03T22:00:02.063Z,2.60
2022-08-03T22:02:32.054Z,2.90
2022-08-03T22:05:00.659Z,2.60
2022-08-03T22:07:34.632Z,2.70
2022-08-03T22:10:06.412Z,3.00
2022-08-03T22:12:35.616Z,2.80
2022-08-03T22:15:11.339Z,2.90
2022-08-03T22:17:55.709Z,2.20
2022-08-03T22:20:25.814Z,2.40
2022-08-03T22:22:56.930Z,2.60
2022-08-03T22:25:31.139Z,2.40
2022-08-03T22:28:09.082Z,2.60
2022-08-03T22:30:39.306Z,2.30
2022-08-03T22:33:11.710Z,2.50
2022-08-03T22:35:47.709Z,2.40
2022-08-03T22:38:18.685Z,2.40
2022-08-03T22:40:49.784Z,2.50
2022-08-03T22:43:17.703Z,2.30
2022-08-03T22:46:09.616Z,2.50
2022-08-03T22:48:41.221Z,2.50
2022-08-03T22:51:10.111Z,2.50
2022-08-03T22:53:39.336Z,2.40
2022-08-03T22:56:07.743Z,2.40
2022-08-03T22:58:35.492Z,2.60
2022-08-03T23:01:08.520Z,2.50
2022-08-03T23:03:59.163Z,2.80
2022-08-03T23:06:38.352Z,3.00
2022-08-03T23:09:11.211Z,2.60
2022-08-03T23:11:45.189Z,2.90
2022-08-03T23:14:18.435Z,3.10
2022-08-03T23:16:47.523Z,2.80
2022-08-03T23:19:25.712Z,2.80
2022-08-03T23:22:03.565Z,2.50
2022-08-03T23:24:36.611Z,2.70
2022-08-03T23:27:08.061Z,2.10
2022-08-03T23:29:37.934Z,2.30
2022-08-03T23:32:07.027Z,2.70
2022-08-03T23:34:57.673Z,2.20
2022-08-03T23:37:26.490Z,2.20
2022-08-03T23:39:57.263Z,2.60
2022-08-03T23:42:26.087Z,2.30
2022-08-03T23:45:05.445Z,2.40
2022-08-03T23:47:46.519Z,2.40
2022-08-03T23:50:16.234Z,2.50
2022-08-03T23:52:59.933Z,2.30
2022-08-03T23:56:12.609Z,2.70
2022-08-03T23:59:09.010Z,2.80
